KIDA/IDA METAR and TAF weather

Enter ICAO airport designator
Station Type Date Time Source
KIDA METAR 2018/12/19 09:53 UTC NOAA

KIDA 190953Z AUTO 22015KT 10SM CLR 00/M02 A3007 RMK AO2 SLP198 T00001017


Station Type Date Time Source
KIDA Decoded METAR 2018/12/19 09:53 UTC NOAA

IDAHO FALLS REGIONAL AIRPORT, ID, United States (KIDA) 43-31N 112-04W 1453M
Dec 19, 2018 - 04:53 AM EST / 2018.12.19 0953 UTC
Wind: from the SW (220 degrees) at 17 MPH (15 KT):0
Visibility: 10 mile(s):0
Sky conditions: clear
Temperature: 32.0 F (0.0 C)
Windchill: 21 F (-6 C):1
Dew Point: 28.9 F (-1.7 C)
Relative Humidity: 88%
Pressure (altimeter): 30.07 in. Hg (1018 hPa)
ob: KIDA 190953Z AUTO 22015KT 10SM CLR 00/M02 A3007 RMK AO2 SLP198 T00001017
cycle: 10

Station Type Date Time Source
KIDA TAF 2018/12/19 06:22 UTC NOAA

TAF KIDA 190520Z 1906/2006 22011G22KT P6SM VCSH SCT040 OVC120
TEMPO 1906/1909 6SM -SHRASN OVC035
FM190900 21015G25KT P6SM BKN025 BKN100
FM191300 22010G20KT P6SM BKN008 BKN070
FM191800 22015KT P6SM SCT010 OVC050
FM200100 22011KT P6SM OVC015


Example: see airport list